This is the latest recevied weather packets stored in our database for station/object KU9TRY. If no packets are shown the sender has not sent any weather packets the latest 10 day(s).
| Time | Temp. | Humidity | Pressure | Rain* | Wind** | Luminosity | Snow |
|---|---|---|---|---|---|---|---|
| 1788112952 | 32.78° C | 52% | 1020.6 hPa | 0 mm | - | 146 W/m² | - |
| 1788112651 | 33.33° C | 50% | 1020.4 hPa | 0 mm | - | 156 W/m² | - |
| 1788112347 | 33.33° C | 51% | 1020.7 hPa | 0 mm | - | 182 W/m² | - |
| 1788112041 | 33.33° C | 51% | 1020.6 hPa | 0 mm | - | 860 W/m² | - |
| 1788111737 | 32.78° C | 52% | 1020.6 hPa | 0 mm | - | 941 W/m² | - |
| 1788111437 | 32.78° C | 53% | 1020.7 hPa | 0 mm | - | 987 W/m² | - |
| 1788111132 | 32.78° C | 54% | 1020.6 hPa | 0 mm | - | 265 W/m² | - |
| 1788110829 | 33.33° C | 52% | 1020.8 hPa | 0 mm | - | 186 W/m² | - |
| 1788110525 | 33.33° C | 56% | 1020.9 hPa | 0 mm | - | 993 W/m² | - |
| 1788110226 | 33.33° C | 53% | 1021 hPa | 0 mm | - | 985 W/m² | - |
| 1788109921 | 33.33° C | 54% | 1021.1 hPa | 0 mm | - | 962 W/m² | - |
| 1788109615 | 33.33° C | 53% | 1021.2 hPa | 0 mm | - | 979 W/m² | - |
| 1788109314 | 33.33° C | 52% | 1021.2 hPa | 0 mm | - | 224 W/m² | - |
| 1788109009 | 32.78° C | 52% | 1021.5 hPa | 0 mm | - | 948 W/m² | - |
| 1788108705 | 32.22° C | 54% | 1021.3 hPa | 0 mm | - | 976 W/m² | - |
| 1788108401 | 32.78° C | 54% | 1021.5 hPa | 0 mm | - | 211 W/m² | - |
| 1788108097 | 32.78° C | 53% | 1021.5 hPa | 0 mm | - | 951 W/m² | - |
| 1788107794 | 33.33° C | 53% | 1021.5 hPa | 0 mm | - | 907 W/m² | - |
| 1788107493 | 32.78° C | 55% | 1021.6 hPa | 0 mm | - | 917 W/m² | - |
| 1788107188 | 32.22° C | 56% | 1021.5 hPa | 0 mm | - | 904 W/m² | - |
| 1788106885 | 32.78° C | 56% | 1021.6 hPa | 0 mm | - | 916 W/m² | - |
| 1788106584 | 32.78° C | 56% | 1021.6 hPa | 0 mm | - | 897 W/m² | - |
| 1788106279 | 31.67° C | 60% | 1021.6 hPa | 0 mm | - | 908 W/m² | - |
| 1788105975 | 32.22° C | 59% | 1021.6 hPa | 0 mm | - | 916 W/m² | - |
| 1788105670 | 31.67° C | 62% | 1021.8 hPa | 0 mm | - | 877 W/m² | - |
* Rain latest hour (hover to see other rain measurements)
** Current wind speed in m/s (hover to see current wind gust speed)